Time;durP1;ratioP1;P1;durP2;ratioP2;P2;SDS_P1;SDS_P2;PMS_P1;PMS_P2;Temp;Humidity;BMP_temperature;BMP_pressure;BME280_temperature;BME280_humidity;BME280_pressure;Samples;Min_cycle;Max_cycle;Signal;HPM_P1;HPM_P2
2022/10/03 00:00:09;;;;;;;5.13;1.10;;;;;;;;;;4932440;29;20051;-68
2022/10/03 00:03:12;;;;;;;5.15;1.38;;;;;;;;;;4916336;29;20538;-69
2022/10/03 00:06:19;;;;;;;4.70;1.20;;;;;;;;;;5026183;28;20054;-68
2022/10/03 00:09:04;;;;;;;4.25;1.33;;;;;;;;;;4980710;28;20053;-68
2022/10/03 00:12:00;;;;;;;4.65;1.42;;;;;;;;;;4980805;28;20060;-69
2022/10/03 00:14:51;;;;;;;4.50;1.42;;;;;;;;;;5008342;28;20046;-68
2022/10/03 00:17:36;;;;;;;7.97;1.35;;;;;;;;;;5016751;28;20426;-68
2022/10/03 00:20:34;;;;;;;3.05;1.30;;;;;;;;;;5019729;28;20523;-68
2022/10/03 00:23:21;;;;;;;4.75;1.52;;;;;;;;;;5052717;28;20053;-68
2022/10/03 00:25:59;;;;;;;4.50;1.30;;;;;;;;;;5052795;28;20053;-68
2022/10/03 00:28:59;;;;;;;3.90;1.27;;;;;;;;;;5052794;28;20075;-69
2022/10/03 00:31:54;;;;;;;4.30;1.30;;;;;;;;;;5032514;28;20402;-68
2022/10/03 00:34:52;;;;;;;4.68;1.52;;;;;;;;;;5016453;28;20053;-68
2022/10/03 00:37:34;;;;;;;3.65;1.30;;;;;;;;;;5032858;28;20061;-68
2022/10/03 00:40:23;;;;;;;7.15;1.50;;;;;;;;;;5012811;28;20058;-69
2022/10/03 00:43:13;;;;;;;6.47;1.35;;;;;;;;;;4980248;28;20061;-68
2022/10/03 00:45:56;;;;;;;2.55;1.10;;;;;;;;;;5012856;28;20084;-68
2022/10/03 00:48:29;;;;;;;5.28;1.70;;;;;;;;;;5012800;28;20053;-68
2022/10/03 00:51:26;;;;;;;5.78;1.45;;;;;;;;;;4992971;28;20065;-69
2022/10/03 00:54:01;;;;;;;3.85;1.30;;;;;;;;;;4993196;28;20054;-69
2022/10/03 00:56:47;;;;;;;4.00;1.42;;;;;;;;;;4993023;28;20050;-68
2022/10/03 00:59:34;;;;;;;4.97;1.02;;;;;;;;;;4944837;28;20077;-69
2022/10/03 01:02:26;;;;;;;5.22;1.50;;;;;;;;;;4973317;28;20054;-68
2022/10/03 01:05:39;;;;;;;4.30;1.40;;;;;;;;;;4973358;28;20047;-69
2022/10/03 01:08:22;;;;;;;3.88;1.30;;;;;;;;;;4897002;29;20064;-69
2022/10/03 01:10:58;;;;;;;4.60;1.52;;;;;;;;;;4897055;29;20409;-69
2022/10/03 01:13:53;;;;;;;4.93;2.15;;;;;;;;;;4896790;29;20057;-68
2022/10/03 01:16:30;;;;;;;4.93;1.63;;;;;;;;;;4896775;29;20161;-68
2022/10/03 01:19:36;;;;;;;2.72;1.40;;;;;;;;;;4862376;29;20065;-69
2022/10/03 01:22:35;;;;;;;6.15;1.83;;;;;;;;;;4878149;29;20065;-68
2022/10/03 01:25:37;;;;;;;7.45;2.30;;;;;;;;;;4877817;29;20077;-69
2022/10/03 01:31:22;;;;;;;5.70;1.92;;;;;;;;;;4878119;29;20065;-68
2022/10/03 01:34:23;;;;;;;3.90;1.85;;;;;;;;;;4877947;29;20064;-69
2022/10/03 01:37:16;;;;;;;5.88;1.65;;;;;;;;;;4877781;29;20057;-68
2022/10/03 01:40:19;;;;;;;7.38;1.67;;;;;;;;;;4897507;29;20520;-69
2022/10/03 01:42:59;;;;;;;5.18;2.35;;;;;;;;;;4957704;28;20066;-68
2022/10/03 01:45:52;;;;;;;5.82;2.08;;;;;;;;;;4972657;28;20055;-69
2022/10/03 01:48:44;;;;;;;5.93;2.17;;;;;;;;;;4972534;28;20054;-68
2022/10/03 01:51:24;;;;;;;4.63;2.10;;;;;;;;;;4988415;28;20050;-69
2022/10/03 01:54:39;;;;;;;11.23;2.50;;;;;;;;;;5011318;28;20061;-69
2022/10/03 01:57:41;;;;;;;5.22;2.15;;;;;;;;;;4979111;28;20053;-70
2022/10/03 02:00:19;;;;;;;6.50;2.15;;;;;;;;;;5011303;28;20121;-70
2022/10/03 02:03:25;;;;;;;5.55;2.33;;;;;;;;;;5011267;28;20054;-70
2022/10/03 02:06:10;;;;;;;6.80;1.98;;;;;;;;;;5011453;28;20061;-70
2022/10/03 02:08:43;;;;;;;5.38;1.77;;;;;;;;;;5011100;28;20062;-70
2022/10/03 02:11:28;;;;;;;4.85;1.92;;;;;;;;;;5011483;28;20057;-70
2022/10/03 02:14:11;;;;;;;5.53;2.00;;;;;;;;;;4955669;28;20042;-70
2022/10/03 02:17:06;;;;;;;5.78;2.10;;;;;;;;;;4972063;28;20055;-70
2022/10/03 02:19:49;;;;;;;5.47;1.80;;;;;;;;;;4971854;28;20407;-69
2022/10/03 02:22:46;;;;;;;7.75;2.20;;;;;;;;;;4987818;28;20058;-69
2022/10/03 02:25:25;;;;;;;7.25;2.95;;;;;;;;;;4898060;29;20071;-69
2022/10/03 02:28:29;;;;;;;8.23;2.72;;;;;;;;;;4933700;29;20055;-69
2022/10/03 02:31:43;;;;;;;9.07;3.35;;;;;;;;;;4917869;29;20063;-70
2022/10/03 02:34:33;;;;;;;6.78;2.75;;;;;;;;;;4879953;29;20069;-70
2022/10/03 02:37:27;;;;;;;8.18;2.60;;;;;;;;;;4895524;29;20421;-70
2022/10/03 02:40:34;;;;;;;7.22;2.60;;;;;;;;;;4894594;29;20083;-70
2022/10/03 02:43:22;;;;;;;7.57;2.80;;;;;;;;;;4879721;29;20052;-70
2022/10/03 02:46:17;;;;;;;6.10;2.53;;;;;;;;;;4879731;29;20060;-70
2022/10/03 02:49:09;;;;;;;6.90;2.88;;;;;;;;;;4876580;29;20506;-70
2022/10/03 02:52:09;;;;;;;9.77;2.60;;;;;;;;;;4848484;29;20054;-70
2022/10/03 02:55:16;;;;;;;5.05;2.10;;;;;;;;;;4857751;29;20068;-70
2022/10/03 02:58:12;;;;;;;11.75;2.92;;;;;;;;;;4870746;29;20061;-70
2022/10/03 03:01:04;;;;;;;4.82;2.20;;;;;;;;;;4876338;29;20061;-70
2022/10/03 03:04:01;;;;;;;6.22;2.58;;;;;;;;;;4932979;29;20078;-70
2022/10/03 03:06:37;;;;;;;6.65;2.60;;;;;;;;;;4932998;29;20063;-70
2022/10/03 03:09:34;;;;;;;10.38;2.95;;;;;;;;;;4904050;29;20060;-70
2022/10/03 03:12:19;;;;;;;10.35;2.92;;;;;;;;;;4933064;29;20071;-70
2022/10/03 03:15:23;;;;;;;9.50;3.45;;;;;;;;;;4932920;29;20060;-70
2022/10/03 03:18:13;;;;;;;9.90;2.92;;;;;;;;;;4932910;29;20055;-70
2022/10/03 03:21:09;;;;;;;9.48;2.67;;;;;;;;;;4916922;29;20064;-70
2022/10/03 03:23:43;;;;;;;10.38;2.72;;;;;;;;;;4932532;29;20048;-70
2022/10/03 03:26:29;;;;;;;11.05;3.38;;;;;;;;;;4944903;28;20471;-70
2022/10/03 03:29:03;;;;;;;7.80;3.20;;;;;;;;;;4932518;29;20056;-70
2022/10/03 03:32:07;;;;;;;9.25;3.17;;;;;;;;;;4889468;29;20059;-70
2022/10/03 03:34:52;;;;;;;10.13;3.13;;;;;;;;;;4951876;28;20059;-70
2022/10/03 03:37:26;;;;;;;7.65;3.03;;;;;;;;;;4932495;29;20524;-70
2022/10/03 03:40:11;;;;;;;9.68;3.20;;;;;;;;;;4951594;28;20172;-70
2022/10/03 03:42:59;;;;;;;;;;;;;;;;;;4952269;28;20070;-69
2022/10/03 03:45:33;;;;;;;13.52;2.97;;;;;;;;;;4951716;28;19922;-70
2022/10/03 03:48:21;;;;;;;8.88;3.38;;;;;;;;;;4993079;28;20072;-70
2022/10/03 03:51:21;;;;;;;7.45;3.22;;;;;;;;;;5011414;28;20057;-70
2022/10/03 03:54:06;;;;;;;8.20;3.13;;;;;;;;;;4980997;28;20060;-69
2022/10/03 03:57:18;;;;;;;9.63;3.22;;;;;;;;;;5013450;28;20050;-70
2022/10/03 03:59:56;;;;;;;9.73;3.67;;;;;;;;;;4916551;29;20055;-70
2022/10/03 04:02:32;;;;;;;10.85;3.55;;;;;;;;;;4898748;29;20064;-70
2022/10/03 04:05:45;;;;;;;7.05;3.25;;;;;;;;;;4898054;29;20057;-70
2022/10/03 04:08:40;;;;;;;9.02;3.83;;;;;;;;;;4879156;29;20422;-69
2022/10/03 04:11:26;;;;;;;9.23;3.80;;;;;;;;;;4879444;29;20449;-69
2022/10/03 04:14:13;;;;;;;11.25;3.83;;;;;;;;;;4848492;29;20748;-70
2022/10/03 04:20:08;;;;;;;8.82;3.63;;;;;;;;;;4879305;29;20518;-69
2022/10/03 04:23:00;;;;;;;12.15;4.03;;;;;;;;;;4879440;29;20106;-70
2022/10/03 04:25:37;;;;;;;7.75;3.78;;;;;;;;;;4871069;29;20054;-70
2022/10/03 04:29:01;;;;;;;11.90;3.85;;;;;;;;;;4875872;29;20057;-70
2022/10/03 04:31:57;;;;;;;8.10;3.70;;;;;;;;;;4829876;29;20065;-70
2022/10/03 04:34:54;;;;;;;8.70;3.97;;;;;;;;;;4858900;29;20502;-70
2022/10/03 04:37:47;;;;;;;12.93;3.70;;;;;;;;;;4925538;29;20512;-70
2022/10/03 04:40:46;;;;;;;11.32;4.03;;;;;;;;;;4897470;29;20465;-70
2022/10/03 04:43:51;;;;;;;8.32;3.63;;;;;;;;;;4863230;29;20061;-70
2022/10/03 04:46:38;;;;;;;8.48;3.50;;;;;;;;;;4891600;29;20053;-70
2022/10/03 04:49:48;;;;;;;8.60;3.72;;;;;;;;;;4897671;29;20052;-70
2022/10/03 04:52:28;;;;;;;9.00;3.90;;;;;;;;;;4878629;29;20057;-70
2022/10/03 04:55:23;;;;;;;12.20;4.05;;;;;;;;;;4847680;29;20060;-70
2022/10/03 04:58:12;;;;;;;9.82;3.78;;;;;;;;;;4829152;29;20062;-70
2022/10/03 05:00:50;;;;;;;10.90;3.97;;;;;;;;;;4841175;29;20090;-70
2022/10/03 05:03:58;;;;;;;10.45;4.05;;;;;;;;;;5135594;27;20465;-71
2022/10/03 05:07:00;;;;;;;8.90;3.90;;;;;;;;;;5069656;28;20048;-71
2022/10/03 05:10:04;;;;;;;12.88;4.00;;;;;;;;;;5050821;28;20382;-71
2022/10/03 05:12:58;;;;;;;10.15;3.78;;;;;;;;;;5069543;28;20048;-71
2022/10/03 05:16:07;;;;;;;8.63;3.63;;;;;;;;;;5087124;28;20060;-70
2022/10/03 05:19:07;;;;;;;7.80;3.45;;;;;;;;;;5007616;28;20069;-71
2022/10/03 05:21:54;;;;;;;9.85;3.83;;;;;;;;;;4929721;29;20421;-70
2022/10/03 05:25:19;;;;;;;9.63;3.80;;;;;;;;;;4930093;29;20064;-72
2022/10/03 05:28:04;;;;;;;9.48;3.42;;;;;;;;;;4854886;29;20081;-71
2022/10/03 05:30:58;;;;;;;9.60;3.40;;;;;;;;;;4809557;29;20402;-71
2022/10/03 05:34:00;;;;;;;9.10;3.25;;;;;;;;;;4809481;29;20091;-71
2022/10/03 05:36:50;;;;;;;12.18;3.88;;;;;;;;;;4737881;30;20051;-71
2022/10/03 05:39:36;;;;;;;7.32;3.20;;;;;;;;;;4767514;30;20063;-71
2022/10/03 05:42:52;;;;;;;8.68;2.97;;;;;;;;;;5125090;27;20754;-71
2022/10/03 05:45:35;;;;;;;9.15;3.75;;;;;;;;;;5041131;28;20504;-71
2022/10/03 05:48:40;;;;;;;9.05;3.30;;;;;;;;;;5050857;28;20060;-71
2022/10/03 05:51:22;;;;;;;8.40;3.40;;;;;;;;;;5046984;28;20053;-71
2022/10/03 05:54:32;;;;;;;9.15;3.38;;;;;;;;;;4994202;28;20057;-71
2022/10/03 05:57:21;;;;;;;6.60;3.25;;;;;;;;;;5027128;28;20053;-71
2022/10/03 06:00:15;;;;;;;6.85;3.05;;;;;;;;;;5026838;28;20517;-71
2022/10/03 06:03:02;;;;;;;9.88;3.22;;;;;;;;;;4994713;28;20069;-71
2022/10/03 06:06:02;;;;;;;10.38;3.35;;;;;;;;;;5027119;28;20564;-71
2022/10/03 06:09:20;;;;;;;14.85;4.00;;;;;;;;;;5027025;28;20520;-71
2022/10/03 06:12:02;;;;;;;9.18;2.53;;;;;;;;;;4926197;29;20056;-71
2022/10/03 06:14:34;;;;;;;6.88;2.72;;;;;;;;;;4926459;29;20057;-71
2022/10/03 06:17:35;;;;;;;7.18;2.65;;;;;;;;;;4910666;29;20060;-71
2022/10/03 06:20:47;;;;;;;6.25;2.65;;;;;;;;;;4910845;29;20109;-70
2022/10/03 06:23:30;;;;;;;6.53;2.50;;;;;;;;;;4910679;29;20053;-71
2022/10/03 06:26:37;;;;;;;9.07;3.03;;;;;;;;;;4910486;29;20067;-70
2022/10/03 06:29:29;;;;;;;6.15;2.50;;;;;;;;;;4945129;28;20055;-71
2022/10/03 06:32:14;;;;;;;10.55;3.17;;;;;;;;;;4968028;28;20059;-71
2022/10/03 06:34:56;;;;;;;4.65;2.45;;;;;;;;;;4983924;28;20051;-71
2022/10/03 06:37:29;;;;;;;7.78;2.78;;;;;;;;;;4967970;28;20054;-71
2022/10/03 06:40:17;;;;;;;7.03;2.88;;;;;;;;;;4967589;28;20560;-70
2022/10/03 06:43:11;;;;;;;6.78;2.75;;;;;;;;;;4967857;28;20059;-70
2022/10/03 06:46:14;;;;;;;7.72;2.80;;;;;;;;;;4951760;28;20062;-70
2022/10/03 06:49:18;;;;;;;5.45;2.70;;;;;;;;;;5016173;28;20053;-70
2022/10/03 06:52:08;;;;;;;6.30;2.67;;;;;;;;;;5010569;28;20061;-70
2022/10/03 06:55:11;;;;;;;6.30;2.38;;;;;;;;;;5032904;28;20054;-70
2022/10/03 06:57:56;;;;;;;7.43;2.70;;;;;;;;;;5032958;28;20048;-70
2022/10/03 07:00:54;;;;;;;7.10;2.90;;;;;;;;;;5032610;28;20073;-70
2022/10/03 07:03:52;;;;;;;8.85;2.60;;;;;;;;;;4999872;28;20061;-70
2022/10/03 07:06:51;;;;;;;5.57;2.40;;;;;;;;;;5032801;28;20065;-70
2022/10/03 07:09:53;;;;;;;6.60;2.40;;;;;;;;;;5032815;28;20072;-70
2022/10/03 07:12:43;;;;;;;7.03;2.55;;;;;;;;;;4925944;28;20050;-70
2022/10/03 07:15:28;;;;;;;6.53;2.90;;;;;;;;;;4973762;28;20066;-70
2022/10/03 07:18:36;;;;;;;6.75;2.40;;;;;;;;;;4973494;28;20054;-70
2022/10/03 07:21:22;;;;;;;6.18;2.13;;;;;;;;;;4973669;28;20043;-70
2022/10/03 07:23:54;;;;;;;6.13;2.22;;;;;;;;;;4973569;28;20055;-70
2022/10/03 07:26:27;;;;;;;;;;;;;;;;;;4925969;29;20059;-70
2022/10/03 07:29:34;;;;;;;6.72;2.45;;;;;;;;;;4903158;29;20291;-70
2022/10/03 07:32:35;;;;;;;5.85;2.38;;;;;;;;;;4903293;29;20055;-70
2022/10/03 07:38:56;;;;;;;5.65;2.03;;;;;;;;;;4934904;29;20067;-70
2022/10/03 07:41:53;;;;;;;5.05;2.10;;;;;;;;;;4934562;29;20409;-70
2022/10/03 07:45:07;;;;;;;5.18;2.38;;;;;;;;;;4934774;29;20055;-70
2022/10/03 07:47:45;;;;;;;8.50;2.28;;;;;;;;;;4862821;29;20072;-71
2022/10/03 07:50:28;;;;;;;5.43;2.33;;;;;;;;;;4915612;29;20060;-70
2022/10/03 07:53:34;;;;;;;5.70;2.45;;;;;;;;;;4899835;29;20055;-70
2022/10/03 07:56:55;;;;;;;5.28;2.25;;;;;;;;;;4915634;29;20056;-70
2022/10/03 08:00:02;;;;;;;4.72;2.25;;;;;;;;;;4859431;29;20560;-70
2022/10/03 08:03:03;;;;;;;5.57;2.28;;;;;;;;;;4830502;29;20053;-70
2022/10/03 08:06:10;;;;;;;6.38;2.70;;;;;;;;;;4898720;29;20437;-70
2022/10/03 08:09:10;;;;;;;8.07;2.30;;;;;;;;;;4915263;29;20067;-70
2022/10/03 08:11:40;;;;;;;6.63;2.35;;;;;;;;;;4915186;29;20098;-70
2022/10/03 08:14:56;;;;;;;7.35;2.90;;;;;;;;;;4915075;29;20071;-70
2022/10/03 08:17:58;;;;;;;7.82;2.42;;;;;;;;;;4855263;29;20054;-70
2022/10/03 08:20:41;;;;;;;5.97;2.33;;;;;;;;;;4840624;29;20519;-70
2022/10/03 08:23:36;;;;;;;7.78;3.00;;;;;;;;;;4843634;29;20062;-70
2022/10/03 08:26:13;;;;;;;6.82;2.53;;;;;;;;;;4896228;29;20157;-70
2022/10/03 08:28:54;;;;;;;7.50;2.42;;;;;;;;;;4880300;29;20056;-69
2022/10/03 08:31:45;;;;;;;6.93;2.55;;;;;;;;;;4896038;29;20188;-70
2022/10/03 08:34:18;;;;;;;5.95;2.50;;;;;;;;;;4905390;29;20067;-70
2022/10/03 08:37:15;;;;;;;6.97;2.78;;;;;;;;;;4933650;29;20055;-69
2022/10/03 08:40:06;;;;;;;9.55;2.67;;;;;;;;;;4933637;29;20500;-69
2022/10/03 08:43:13;;;;;;;7.00;2.33;;;;;;;;;;4933520;29;20055;-69
2022/10/03 08:45:52;;;;;;;5.40;2.35;;;;;;;;;;4938805;29;20063;-70
2022/10/03 08:48:34;;;;;;;7.75;2.38;;;;;;;;;;4952708;29;20099;-70
2022/10/03 08:51:34;;;;;;;6.03;2.63;;;;;;;;;;4889924;29;20086;-69
2022/10/03 08:54:41;;;;;;;7.05;2.55;;;;;;;;;;4974429;28;20061;-70
2022/10/03 08:57:40;;;;;;;6.65;2.47;;;;;;;;;;5070620;28;20503;-69
2022/10/03 09:00:33;;;;;;;5.75;2.22;;;;;;;;;;5028782;28;20058;-70
2022/10/03 09:03:30;;;;;;;5.32;2.10;;;;;;;;;;5014257;28;20049;-69
2022/10/03 09:06:23;;;;;;;6.63;2.40;;;;;;;;;;5030425;28;20386;-69
2022/10/03 09:09:13;;;;;;;6.47;2.28;;;;;;;;;;5010482;28;20053;-69
2022/10/03 09:12:11;;;;;;;5.65;2.28;;;;;;;;;;4994597;28;20068;-69
2022/10/03 09:15:10;;;;;;;4.10;1.98;;;;;;;;;;5022411;28;20498;-69
2022/10/03 09:17:50;;;;;;;7.38;2.20;;;;;;;;;;5030299;28;20060;-69
2022/10/03 09:20:41;;;;;;;5.07;2.28;;;;;;;;;;4990610;28;20054;-69
2022/10/03 09:23:50;;;;;;;5.13;2.30;;;;;;;;;;4958301;28;20065;-69
2022/10/03 09:26:39;;;;;;;5.85;1.90;;;;;;;;;;4932827;29;20056;-69
2022/10/03 09:29:45;;;;;;;9.05;2.78;;;;;;;;;;4933053;29;20067;-69
2022/10/03 09:32:32;;;;;;;5.25;2.45;;;;;;;;;;4879115;29;20501;-69
2022/10/03 09:35:02;;;;;;;7.63;2.10;;;;;;;;;;4895266;29;20517;-69
2022/10/03 09:37:53;;;;;;;6.30;2.60;;;;;;;;;;4879309;29;20549;-69
2022/10/03 09:40:33;;;;;;;8.38;2.80;;;;;;;;;;4869899;29;20065;-69
2022/10/03 09:43:21;;;;;;;8.60;3.10;;;;;;;;;;4839218;29;20545;-69
2022/10/03 09:46:00;;;;;;;10.23;3.35;;;;;;;;;;4843176;29;20057;-69
2022/10/03 09:48:58;;;;;;;6.97;2.90;;;;;;;;;;4857801;29;20068;-69
2022/10/03 09:51:35;;;;;;;5.40;2.50;;;;;;;;;;4857626;29;20078;-69
2022/10/03 09:54:31;;;;;;;7.82;2.92;;;;;;;;;;4857679;29;20554;-69
2022/10/03 09:57:29;;;;;;;10.75;3.72;;;;;;;;;;4861286;29;20053;-70
2022/10/03 10:00:10;;;;;;;10.18;4.57;;;;;;;;;;4910063;29;20059;-69
2022/10/03 10:03:21;;;;;;;13.18;4.40;;;;;;;;;;4922800;28;20444;-69
2022/10/03 10:06:18;;;;;;;8.40;3.75;;;;;;;;;;4898161;29;20067;-69
2022/10/03 10:09:35;;;;;;;10.48;3.70;;;;;;;;;;4858440;29;20060;-69
2022/10/03 10:12:05;;;;;;;9.52;3.13;;;;;;;;;;4862438;29;20061;-69
2022/10/03 10:15:13;;;;;;;6.53;3.22;;;;;;;;;;4875855;29;20053;-69
2022/10/03 10:18:20;;;;;;;9.10;3.40;;;;;;;;;;4863581;29;20060;-69
2022/10/03 10:21:28;;;;;;;8.57;3.33;;;;;;;;;;4894622;29;20056;-69
2022/10/03 10:24:45;;;;;;;11.25;4.28;;;;;;;;;;4826561;29;20448;-69
2022/10/03 10:27:48;;;;;;;12.73;5.28;;;;;;;;;;5172164;27;20209;-69
2022/10/03 10:30:43;;;;;;;10.88;4.80;;;;;;;;;;5133331;27;20397;-69
2022/10/03 10:33:34;;;;;;;10.20;4.60;;;;;;;;;;5151474;27;20042;-69
2022/10/03 10:36:18;;;;;;;8.93;4.07;;;;;;;;;;5151203;27;20054;-69
2022/10/03 10:38:49;;;;;;;10.80;3.97;;;;;;;;;;5151253;27;20419;-69
2022/10/03 10:41:44;;;;;;;9.57;4.30;;;;;;;;;;5093672;28;20465;-69
2022/10/03 10:44:45;;;;;;;9.85;3.50;;;;;;;;;;5128022;28;20129;-69
2022/10/03 10:47:27;;;;;;;9.43;3.70;;;;;;;;;;5127697;28;20577;-69
2022/10/03 10:50:12;;;;;;;7.45;3.42;;;;;;;;;;5127972;28;20154;-70
2022/10/03 10:53:07;;;;;;;6.85;3.20;;;;;;;;;;5110852;28;20066;-70
2022/10/03 10:56:13;;;;;;;8.27;3.38;;;;;;;;;;5127897;28;20059;-69
2022/10/03 10:59:19;;;;;;;10.45;3.03;;;;;;;;;;5127890;28;20071;-70
2022/10/03 11:02:14;;;;;;;13.02;3.20;;;;;;;;;;5076615;28;20047;-70
2022/10/03 11:05:22;;;;;;;6.88;3.63;;;;;;;;;;5078481;28;20078;-70
2022/10/03 11:08:23;;;;;;;8.32;3.22;;;;;;;;;;5110378;28;20051;-70
2022/10/03 11:11:12;;;;;;;7.38;3.33;;;;;;;;;;5046324;28;20053;-70
2022/10/03 11:13:46;;;;;;;9.25;3.28;;;;;;;;;;5046487;28;20116;-71
2022/10/03 11:16:39;;;;;;;8.00;3.67;;;;;;;;;;5013217;28;20056;-70
2022/10/03 11:19:45;;;;;;;6.70;3.35;;;;;;;;;;5037994;28;20104;-71
2022/10/03 11:22:59;;;;;;;10.05;3.22;;;;;;;;;;4974297;28;20057;-71
2022/10/03 11:26:10;;;;;;;9.10;3.63;;;;;;;;;;4948097;29;20058;-71
2022/10/03 11:28:58;;;;;;;9.63;5.43;;;;;;;;;;4948657;29;20433;-71
2022/10/03 11:32:07;;;;;;;7.85;3.65;;;;;;;;;;4948364;28;20055;-71
2022/10/03 11:34:56;;;;;;;6.25;3.03;;;;;;;;;;4932193;28;20052;-72
2022/10/03 11:37:31;;;;;;;6.80;3.15;;;;;;;;;;4942663;28;20067;-73
2022/10/03 11:40:22;;;;;;;8.15;2.65;;;;;;;;;;4935629;29;20047;-72
2022/10/03 11:43:13;;;;;;;7.65;3.38;;;;;;;;;;4935323;29;20066;-72
2022/10/03 11:45:53;;;;;;;6.18;2.88;;;;;;;;;;4935494;29;20039;-71
2022/10/03 11:48:46;;;;;;;7.90;2.53;;;;;;;;;;4960015;28;20050;-71
2022/10/03 11:51:25;;;;;;;5.28;2.58;;;;;;;;;;4941569;28;20074;-72
2022/10/03 11:54:14;;;;;;;5.80;2.85;;;;;;;;;;4973920;28;20447;-72
2022/10/03 11:57:27;;;;;;;6.40;2.75;;;;;;;;;;5026876;28;20063;-72
2022/10/03 12:00:11;;;;;;;8.32;2.88;;;;;;;;;;5012571;28;20060;-72
2022/10/03 12:03:05;;;;;;;7.30;2.58;;;;;;;;;;5028143;28;20056;-72
2022/10/03 12:05:51;;;;;;;7.25;3.28;;;;;;;;;;4970227;28;20048;-71
2022/10/03 12:11:41;;;;;;;6.18;3.13;;;;;;;;;;5052122;28;20464;-72
2022/10/03 12:14:31;;;;;;;6.25;3.35;;;;;;;;;;5052211;28;20045;-73
2022/10/03 12:17:07;;;;;;;7.13;2.75;;;;;;;;;;5031902;28;20121;-74
2022/10/03 12:19:40;;;;;;;7.20;2.53;;;;;;;;;;4999196;28;20049;-74
2022/10/03 12:22:29;;;;;;;6.60;3.63;;;;;;;;;;4999330;28;20413;-74
2022/10/03 12:25:18;;;;;;;6.85;3.25;;;;;;;;;;4998973;28;20418;-72
2022/10/03 12:28:16;;;;;;;7.90;3.20;;;;;;;;;;4999093;28;20485;-73
2022/10/03 12:31:00;;;;;;;5.70;2.85;;;;;;;;;;5031824;28;20061;-74
2022/10/03 12:33:48;;;;;;;10.68;2.95;;;;;;;;;;4998994;28;20064;-74
2022/10/03 12:36:52;;;;;;;7.05;2.78;;;;;;;;;;5045165;28;20062;-73
2022/10/03 12:39:39;;;;;;;5.57;2.88;;;;;;;;;;4995916;28;20058;-74
2022/10/03 12:42:34;;;;;;;8.50;2.88;;;;;;;;;;4962745;28;20410;-74
2022/10/03 12:45:26;;;;;;;5.05;2.65;;;;;;;;;;5011704;28;20058;-74
2022/10/03 12:48:41;;;;;;;5.45;2.92;;;;;;;;;;5011803;28;20190;-73
2022/10/03 12:51:32;;;;;;;5.43;2.90;;;;;;;;;;4953141;29;20062;-73
2022/10/03 12:54:29;;;;;;;6.00;2.65;;;;;;;;;;4883859;29;20048;-74
2022/10/03 12:57:23;;;;;;;5.78;2.97;;;;;;;;;;4914964;29;20067;-72
2022/10/03 13:00:16;;;;;;;7.35;3.10;;;;;;;;;;4915166;29;20064;-71
2022/10/03 13:03:16;;;;;;;11.27;3.45;;;;;;;;;;4899236;29;20059;-73
2022/10/03 13:06:11;;;;;;;8.02;3.58;;;;;;;;;;4914876;29;20108;-72
2022/10/03 13:09:03;;;;;;;6.03;2.85;;;;;;;;;;4914818;29;20067;-71
2022/10/03 13:11:49;;;;;;;7.95;3.33;;;;;;;;;;4914961;29;20056;-71
2022/10/03 13:14:26;;;;;;;6.13;3.10;;;;;;;;;;4914930;29;20059;-71
2022/10/03 13:17:19;;;;;;;7.60;3.90;;;;;;;;;;4943735;29;20164;-72
2022/10/03 13:20:05;;;;;;;6.30;2.85;;;;;;;;;;4952924;29;20058;-72
2022/10/03 13:22:47;;;;;;;8.82;4.13;;;;;;;;;;4952829;29;20059;-71
2022/10/03 13:25:44;;;;;;;8.60;5.40;;;;;;;;;;4952233;28;20055;-70
2022/10/03 13:28:17;;;;;;;8.57;4.53;;;;;;;;;;4979273;28;20402;-71
2022/10/03 13:30:48;;;;;;;5.72;3.28;;;;;;;;;;4984362;28;20041;-73
2022/10/03 13:33:24;;;;;;;8.82;3.33;;;;;;;;;;5010574;28;20046;-73
2022/10/03 13:35:57;;;;;;;6.65;3.38;;;;;;;;;;5010769;28;20514;-72
2022/10/03 13:38:48;;;;;;;6.85;2.90;;;;;;;;;;5010946;28;20058;-72
2022/10/03 13:41:31;;;;;;;9.43;3.85;;;;;;;;;;5010940;28;20049;-71
2022/10/03 13:44:40;;;;;;;6.45;3.03;;;;;;;;;;5010857;28;20061;-73
2022/10/03 13:47:55;;;;;;;5.85;2.92;;;;;;;;;;4978041;28;20061;-72
2022/10/03 13:50:44;;;;;;;5.95;3.28;;;;;;;;;;4994271;28;20054;-72
2022/10/03 13:53:17;;;;;;;6.85;3.60;;;;;;;;;;5010702;28;20070;-72
2022/10/03 13:55:50;;;;;;;6.38;3.40;;;;;;;;;;5010546;28;20053;-70
2022/10/03 13:58:47;;;;;;;7.32;3.63;;;;;;;;;;5010614;28;20653;-72
2022/10/03 14:01:33;;;;;;;7.25;3.35;;;;;;;;;;5010287;28;20069;-73
2022/10/03 14:04:04;;;;;;;9.27;3.45;;;;;;;;;;5010523;28;20061;-71
2022/10/03 14:06:43;;;;;;;8.52;3.22;;;;;;;;;;5069613;28;20060;-71
2022/10/03 14:09:24;;;;;;;7.20;3.17;;;;;;;;;;5086644;28;20087;-72
2022/10/03 14:12:00;;;;;;;6.13;3.22;;;;;;;;;;5129157;27;20525;-70
2022/10/03 14:15:05;;;;;;;8.27;3.50;;;;;;;;;;5133366;27;20509;-72
2022/10/03 14:17:35;;;;;;;8.02;3.35;;;;;;;;;;5049914;28;20061;-73
2022/10/03 14:20:14;;;;;;;6.47;3.63;;;;;;;;;;5010160;28;20053;-70
2022/10/03 14:23:16;;;;;;;8.63;3.25;;;;;;;;;;4961631;28;20453;-69
2022/10/03 14:25:59;;;;;;;7.28;3.03;;;;;;;;;;5009822;28;20501;-69
2022/10/03 14:28:40;;;;;;;5.78;3.30;;;;;;;;;;4961732;28;20410;-69
2022/10/03 14:31:30;;;;;;;7.65;3.13;;;;;;;;;;5029683;28;20057;-69
2022/10/03 14:34:06;;;;;;;7.05;2.67;;;;;;;;;;5029642;28;20168;-69
2022/10/03 14:36:49;;;;;;;6.00;3.22;;;;;;;;;;5029793;28;20093;-72
2022/10/03 14:39:35;;;;;;;5.82;3.17;;;;;;;;;;5029951;28;20057;-71
2022/10/03 14:42:11;;;;;;;6.50;3.40;;;;;;;;;;4981108;28;20057;-69
2022/10/03 14:44:53;;;;;;;5.20;2.53;;;;;;;;;;4997024;28;20076;-67
2022/10/03 14:47:26;;;;;;;7.47;2.83;;;;;;;;;;5029877;28;20163;-70
2022/10/03 14:49:59;;;;;;;6.03;2.70;;;;;;;;;;5013239;28;20069;-69
2022/10/03 14:52:47;;;;;;;5.15;2.53;;;;;;;;;;5013164;28;20155;-71
2022/10/03 14:55:31;;;;;;;4.10;2.13;;;;;;;;;;5046372;28;20065;-70
2022/10/03 14:58:11;;;;;;;4.40;2.28;;;;;;;;;;5049471;28;20049;-69
2022/10/03 15:00:44;;;;;;;4.07;1.92;;;;;;;;;;5049707;28;20106;-71
2022/10/03 15:03:19;;;;;;;5.85;2.45;;;;;;;;;;4993677;28;20050;-72
2022/10/03 15:06:10;;;;;;;4.90;2.15;;;;;;;;;;4954505;28;20050;-70
2022/10/03 15:08:48;;;;;;;6.20;3.03;;;;;;;;;;4939546;28;20632;-70
2022/10/03 15:11:47;;;;;;;5.05;2.40;;;;;;;;;;4977171;28;20676;-71
2022/10/03 15:14:19;;;;;;;4.57;1.77;;;;;;;;;;4955168;29;20063;-70
2022/10/03 15:16:55;;;;;;;3.45;1.50;;;;;;;;;;4939116;29;20055;-71
2022/10/03 15:19:39;;;;;;;3.22;1.90;;;;;;;;;;4954733;29;20058;-68
2022/10/03 15:22:27;;;;;;;6.22;2.10;;;;;;;;;;4955122;29;20074;-69
2022/10/03 15:25:18;;;;;;;2.20;1.02;;;;;;;;;;4954731;29;20063;-68
2022/10/03 15:27:56;;;;;;;;;;;;;;;;;;4955287;29;20517;-71
2022/10/03 15:30:31;;;;;;;2.72;1.85;;;;;;;;;;4942114;28;20299;-68
2022/10/03 15:33:29;;;;;;;2.53;0.82;;;;;;;;;;4942114;28;20058;-70
2022/10/03 15:36:24;;;;;;;2.50;1.00;;;;;;;;;;4935571;29;20071;-71
2022/10/03 15:39:02;;;;;;;1.60;1.00;;;;;;;;;;4935592;29;20055;-69
2022/10/03 15:41:54;;;;;;;2.58;1.02;;;;;;;;;;4950238;29;20063;-72
2022/10/03 15:44:38;;;;;;;1.90;0.82;;;;;;;;;;4954696;29;20055;-72
2022/10/03 15:47:14;;;;;;;1.77;0.82;;;;;;;;;;4938516;29;20059;-68
2022/10/03 15:49:59;;;;;;;3.10;0.85;;;;;;;;;;4922864;29;20052;-71
2022/10/03 15:52:44;;;;;;;1.63;0.98;;;;;;;;;;4941536;28;20491;-68
2022/10/03 15:55:24;;;;;;;2.08;0.95;;;;;;;;;;4973754;28;20094;-71
2022/10/03 15:58:10;;;;;;;4.70;1.10;;;;;;;;;;4975417;28;20072;-69
2022/10/03 16:00:42;;;;;;;2.42;1.00;;;;;;;;;;4964115;28;20061;-70
2022/10/03 16:03:32;;;;;;;2.53;1.10;;;;;;;;;;4996674;28;20050;-72
2022/10/03 16:06:32;;;;;;;1.73;1.23;;;;;;;;;;5012688;28;20058;-68
2022/10/03 16:09:40;;;;;;;1.27;0.85;;;;;;;;;;4996737;28;20054;-70
2022/10/03 16:12:25;;;;;;;1.75;1.05;;;;;;;;;;5025588;28;20069;-70
2022/10/03 16:15:25;;;;;;;2.53;1.15;;;;;;;;;;5115095;28;20035;-69
2022/10/03 16:18:18;;;;;;;2.08;1.10;;;;;;;;;;5114906;28;20047;-71
2022/10/03 16:20:54;;;;;;;2.67;1.30;;;;;;;;;;5012135;28;20054;-69
2022/10/03 16:23:39;;;;;;;2.40;1.70;;;;;;;;;;5012267;28;20466;-71
2022/10/03 16:26:44;;;;;;;3.17;1.25;;;;;;;;;;5011927;28;20053;-72
2022/10/03 16:29:25;;;;;;;3.83;1.40;;;;;;;;;;4921870;29;20542;-71
2022/10/03 16:32:30;;;;;;;3.75;1.52;;;;;;;;;;4953903;29;20066;-70
2022/10/03 16:35:04;;;;;;;2.95;1.50;;;;;;;;;;4884463;29;20052;-71
2022/10/03 16:37:41;;;;;;;4.25;1.50;;;;;;;;;;4899554;29;20063;-72
2022/10/03 16:40:21;;;;;;;3.10;1.70;;;;;;;;;;4884201;29;20056;-70
2022/10/03 16:42:56;;;;;;;3.30;1.63;;;;;;;;;;4884151;29;20079;-71
2022/10/03 16:45:35;;;;;;;3.75;1.70;;;;;;;;;;4915456;29;20059;-72
2022/10/03 16:51:47;;;;;;;3.60;1.70;;;;;;;;;;4899119;29;20063;-71
2022/10/03 16:54:19;;;;;;;3.05;1.40;;;;;;;;;;4899889;29;20638;-70
2022/10/03 16:56:58;;;;;;;2.75;1.30;;;;;;;;;;4881417;28;20063;-71
2022/10/03 16:59:30;;;;;;;3.50;1.77;;;;;;;;;;4917847;29;20059;-71
2022/10/03 17:02:16;;;;;;;2.75;1.55;;;;;;;;;;4934061;29;20051;-72
2022/10/03 17:05:06;;;;;;;4.25;2.00;;;;;;;;;;4914694;29;20377;-70
2022/10/03 17:07:40;;;;;;;2.80;1.38;;;;;;;;;;4914931;29;20641;-68
2022/10/03 17:10:40;;;;;;;5.25;1.70;;;;;;;;;;4942199;28;20206;-68
2022/10/03 17:13:19;;;;;;;2.97;1.40;;;;;;;;;;4952662;29;20043;-70
2022/10/03 17:16:03;;;;;;;6.93;1.50;;;;;;;;;;4953003;29;20070;-73
2022/10/03 17:18:46;;;;;;;2.30;1.17;;;;;;;;;;4952653;29;20043;-71